Time;durP1;ratioP1;P1;durP2;ratioP2;P2;SDS_P1;SDS_P2;PMS_P1;PMS_P2;Temp;Humidity;BMP_temperature;BMP_pressure;BME280_temperature;BME280_humidity;BME280_pressure;Samples;Min_cycle;Max_cycle;Signal;HPM_P1;HPM_P2
2022/03/10 00:01:53;;;;;;;17.10;3.77;;;;;;;-5.36;31.14;100772.56;5044119;28;20053;-74
2022/03/10 00:04:19;;;;;;;9.27;3.40;;;;;;;-5.27;31.31;100772.53;5033178;28;20514;-75
2022/03/10 00:06:46;;;;;;;16.07;4.00;;;;;;;-5.28;31.10;100776.19;5027928;28;20505;-75
2022/03/10 00:09:12;;;;;;;11.20;3.92;;;;;;;-5.25;31.12;100772.34;5046478;28;20040;-74
2022/03/10 00:11:38;;;;;;;10.37;3.10;;;;;;;-5.34;31.15;100778.59;5030137;28;20045;-75
2022/03/10 00:14:05;;;;;;;12.77;3.90;;;;;;;-5.28;30.90;100780.66;5030694;28;20079;-78
2022/03/10 00:16:31;;;;;;;12.80;4.63;;;;;;;-5.38;31.05;100770.03;5012373;28;20140;-78
2022/03/10 00:19:03;;;;;;;13.70;3.90;;;;;;;-5.39;31.14;100770.16;5047798;28;20083;-78
2022/03/10 00:21:29;;;;;;;9.87;3.63;;;;;;;-5.30;31.16;100771.97;5021310;28;20533;-78
2022/03/10 00:23:56;;;;;;;14.17;4.20;;;;;;;-5.36;30.96;100757.38;5035494;28;20071;-79
2022/03/10 00:26:22;;;;;;;13.48;3.50;;;;;;;-5.28;31.00;100778.00;5048342;28;20056;-78
2022/03/10 00:28:48;;;;;;;11.53;3.70;;;;;;;-5.38;31.23;100772.69;5003109;28;20152;-79
2022/03/10 00:31:15;;;;;;;10.43;3.57;;;;;;;-5.60;30.97;100757.91;5016419;28;20095;-77
2022/03/10 00:33:41;;;;;;;12.87;4.47;;;;;;;-5.55;31.00;100768.97;5037187;28;20541;-77
2022/03/10 00:36:07;;;;;;;11.17;3.83;;;;;;;-5.49;30.97;100781.72;5043650;28;20080;-78
2022/03/10 00:38:34;;;;;;;11.27;3.43;;;;;;;-5.58;31.51;100779.91;5033757;28;20053;-78
2022/03/10 00:41:00;;;;;;;11.57;4.80;;;;;;;-5.67;31.30;100778.13;5031290;28;20049;-77
2022/03/10 00:43:27;;;;;;;9.23;3.25;;;;;;;-5.69;31.32;100786.25;5048653;28;20060;-78
2022/03/10 00:45:54;;;;;;;10.87;3.93;;;;;;;-5.67;31.84;100786.13;5037043;28;20053;-78
2022/03/10 00:48:22;;;;;;;9.77;3.63;;;;;;;-5.60;31.22;100787.22;5030371;28;20141;-78
2022/03/10 00:50:48;;;;;;;11.47;3.70;;;;;;;-5.68;31.39;100793.28;5021192;28;20064;-78
2022/03/10 00:53:14;;;;;;;11.07;3.50;;;;;;;-5.73;31.34;100788.38;5043762;28;20049;-78
2022/03/10 00:55:40;;;;;;;11.87;3.70;;;;;;;-5.73;31.71;100792.88;5049894;28;20143;-77
2022/03/10 00:58:07;;;;;;;11.13;3.53;;;;;;;-5.71;31.59;100796.22;5024547;28;20144;-77
2022/03/10 01:00:34;;;;;;;13.43;4.85;;;;;;;-5.87;31.62;100784.34;5033926;28;20049;-78
2022/03/10 01:03:03;;;;;;;10.83;3.80;;;;;;;-5.84;32.00;100797.38;5039863;28;20496;-77
2022/03/10 01:05:29;;;;;;;12.47;3.80;;;;;;;-5.78;31.95;100797.78;5029710;28;20151;-78
2022/03/10 01:07:56;;;;;;;12.27;4.20;;;;;;;-5.82;32.01;100796.38;5040376;28;20049;-78
2022/03/10 01:10:22;;;;;;;12.83;4.20;;;;;;;-5.84;31.91;100793.88;4996770;28;20049;-78
2022/03/10 01:12:50;;;;;;;11.45;4.35;;;;;;;-5.90;31.87;100795.28;5030389;28;20057;-78
2022/03/10 01:15:20;;;;;;;11.47;4.13;;;;;;;-6.00;31.95;100794.44;5041953;28;20107;-79
2022/03/10 01:17:47;;;;;;;11.07;4.20;;;;;;;-5.96;32.13;100811.00;5013381;28;20050;-78
2022/03/10 01:20:14;;;;;;;13.52;4.18;;;;;;;-5.96;32.11;100809.16;5028739;28;20053;-78
2022/03/10 01:22:40;;;;;;;13.13;4.57;;;;;;;-6.03;31.94;100798.25;5037541;28;20059;-80
2022/03/10 01:25:08;;;;;;;12.07;4.13;;;;;;;-5.95;31.92;100812.66;5034186;28;20144;-79
2022/03/10 01:27:35;;;;;;;14.33;4.33;;;;;;;-6.00;31.84;100811.28;5005862;28;20100;-78
2022/03/10 01:30:02;;;;;;;12.90;4.17;;;;;;;-6.06;32.08;100825.19;5012344;28;20077;-78
2022/03/10 01:32:30;;;;;;;10.37;4.23;;;;;;;-6.10;32.32;100821.13;5033465;28;20247;-76
2022/03/10 01:34:56;;;;;;;15.07;4.15;;;;;;;-6.10;31.78;100825.59;5025418;28;20057;-77
2022/03/10 01:37:23;;;;;;;11.83;4.07;;;;;;;-6.12;32.11;100831.91;5009592;28;20057;-77
2022/03/10 01:39:49;;;;;;;12.80;4.10;;;;;;;-6.28;32.03;100819.16;5018279;28;20184;-79
2022/03/10 01:42:15;;;;;;;12.57;3.57;;;;;;;-6.21;32.31;100829.25;5030635;28;20055;-78
2022/03/10 01:44:41;;;;;;;10.93;3.43;;;;;;;-6.24;32.36;100830.38;5030861;28;20040;-78
2022/03/10 01:47:10;;;;;;;13.70;3.60;;;;;;;-6.20;31.92;100821.13;5014068;28;20140;-78
2022/03/10 01:49:37;;;;;;;22.07;4.50;;;;;;;-6.19;31.79;100829.94;5003456;28;20100;-78
2022/03/10 01:52:04;;;;;;;11.25;3.67;;;;;;;-6.31;31.84;100831.91;5025806;28;20056;-78
2022/03/10 01:54:31;;;;;;;12.23;3.33;;;;;;;-6.31;32.08;100832.75;5006560;28;20054;-74
2022/03/10 01:56:59;;;;;;;8.87;3.33;;;;;;;-6.39;32.19;100826.44;5042647;28;20049;-79
2022/03/10 01:59:26;;;;;;;9.83;3.63;;;;;;;-6.42;32.02;100816.91;5012157;28;20142;-79
2022/03/10 02:01:52;;;;;;;13.40;3.72;;;;;;;-6.35;32.56;100836.66;5047785;28;20102;-79
2022/03/10 02:04:18;;;;;;;10.40;3.90;;;;;;;-6.38;32.27;100838.78;5024196;28;20046;-78
2022/03/10 02:06:47;;;;;;;9.40;3.60;;;;;;;-6.36;32.32;100834.16;5027826;28;20048;-79
2022/03/10 02:11:58;;;;;;;11.57;3.70;;;;;;;-6.35;32.33;100854.47;5037888;28;20123;-78
2022/03/10 02:17:22;;;;;;;17.47;3.97;;;;;;;-6.50;32.79;100854.00;5042978;28;20060;-79
2022/03/10 02:19:50;;;;;;;13.57;3.80;;;;;;;-6.57;33.07;100846.56;5024186;28;20068;-79
2022/03/10 02:22:18;;;;;;;16.73;3.63;;;;;;;-6.56;32.80;100855.38;5035813;28;20085;-78
2022/03/10 02:24:44;;;;;;;12.60;4.27;;;;;;;-6.49;32.46;100859.19;5048127;28;20064;-79
2022/03/10 02:27:16;;;;;;;12.43;3.30;;;;;;;-6.55;32.67;100860.59;5012636;28;20140;-79
2022/03/10 02:29:44;;;;;;;8.43;3.30;;;;;;;-6.57;32.68;100862.53;5047954;28;20044;-79
2022/03/10 02:32:13;;;;;;;12.27;3.70;;;;;;;-6.59;33.12;100864.50;5033408;28;20045;-79
2022/03/10 02:34:42;;;;;;;10.37;3.40;;;;;;;-6.71;33.07;100857.59;5031700;28;20518;-79
2022/03/10 02:37:10;;;;;;;12.37;3.20;;;;;;;-6.66;32.66;100867.84;5031783;28;20057;-79
2022/03/10 02:39:37;;;;;;;12.30;3.85;;;;;;;-6.67;32.85;100872.31;5041713;28;20041;-79
2022/03/10 02:42:03;;;;;;;11.55;3.55;;;;;;;-6.62;32.61;100877.22;5030573;28;20061;-78
2022/03/10 02:44:30;;;;;;;9.50;3.33;;;;;;;-6.55;32.70;100873.88;5028701;28;20052;-79
2022/03/10 02:46:56;;;;;;;8.43;3.10;;;;;;;-6.64;32.90;100882.69;5011090;28;20077;-79
2022/03/10 02:49:23;;;;;;;9.63;3.33;;;;;;;-6.73;32.63;100872.88;5025784;28;20048;-79
2022/03/10 02:51:50;;;;;;;10.80;3.30;;;;;;;-6.66;32.72;100878.50;5028156;28;20041;-80
2022/03/10 02:54:16;;;;;;;10.97;3.43;;;;;;;-6.67;32.86;100884.78;5037027;28;20069;-82
2022/03/10 02:56:43;;;;;;;15.70;3.30;;;;;;;-6.65;32.61;100888.16;5028333;28;20306;-82
2022/03/10 02:59:10;;;;;;;11.48;3.38;;;;;;;-6.75;32.82;100869.50;5002283;28;20045;-80
2022/03/10 03:01:37;;;;;;;14.32;3.92;;;;;;;-6.80;32.89;100869.91;5022294;28;20053;-79
2022/03/10 03:04:03;;;;;;;11.67;3.63;;;;;;;-6.75;32.86;100878.31;5043182;28;20041;-80
2022/03/10 03:06:30;;;;;;;11.27;3.30;;;;;;;-6.65;32.73;100886.31;5045119;28;20040;-80
2022/03/10 03:08:56;;;;;;;11.20;3.97;;;;;;;-6.76;32.78;100871.31;5009935;28;20291;-80
2022/03/10 03:11:22;;;;;;;14.30;3.73;;;;;;;-6.81;32.85;100883.31;5015737;28;20053;-79
2022/03/10 03:13:49;;;;;;;10.17;3.47;;;;;;;-6.80;32.66;100891.19;5036961;28;20057;-78
2022/03/10 03:16:16;;;;;;;14.82;4.28;;;;;;;-6.75;33.04;100896.94;5024530;28;20048;-79
2022/03/10 03:18:42;;;;;;;13.13;4.17;;;;;;;-6.79;32.99;100902.66;4998547;28;20057;-79
2022/03/10 03:21:08;;;;;;;15.23;3.90;;;;;;;-6.80;32.83;100880.53;5018947;28;20052;-80
2022/03/10 03:23:35;;;;;;;11.10;3.80;;;;;;;-6.90;33.16;100893.81;4979921;28;20136;-80
2022/03/10 03:26:01;;;;;;;12.13;3.90;;;;;;;-6.93;33.00;100895.88;5033813;28;20132;-79
2022/03/10 03:28:27;;;;;;;8.33;3.33;;;;;;;-6.91;33.12;100907.22;5010818;28;20049;-79
2022/03/10 03:30:55;;;;;;;12.00;3.73;;;;;;;-6.97;33.15;100908.59;5012182;28;20541;-80
2022/03/10 03:33:21;;;;;;;11.65;3.72;;;;;;;-7.03;33.14;100901.97;5006211;28;20095;-79
2022/03/10 03:35:47;;;;;;;10.23;3.80;;;;;;;-6.95;33.09;100906.63;5013610;28;20107;-78
2022/03/10 03:38:13;;;;;;;10.73;3.40;;;;;;;-6.87;33.40;100906.81;5026362;28;20045;-78
2022/03/10 03:40:40;;;;;;;10.90;3.63;;;;;;;-6.88;33.18;100910.47;5026140;28;20525;-78
2022/03/10 03:43:07;;;;;;;10.20;3.58;;;;;;;-6.95;33.50;100914.63;5043673;28;20513;-80
2022/03/10 03:45:33;;;;;;;13.23;4.43;;;;;;;-6.96;33.52;100914.78;5025736;28;20059;-80
2022/03/10 03:48:00;;;;;;;9.83;3.90;;;;;;;-6.94;33.34;100926.97;5025447;28;20053;-79
2022/03/10 03:50:27;;;;;;;13.85;4.18;;;;;;;-6.96;33.20;100920.91;5038180;28;20140;-79
2022/03/10 03:52:53;;;;;;;11.50;4.07;;;;;;;-6.96;33.26;100917.44;5018784;28;20100;-78
2022/03/10 03:55:19;;;;;;;13.80;4.07;;;;;;;-6.96;33.08;100920.91;5011622;28;20053;-79
2022/03/10 03:57:46;;;;;;;13.53;3.93;;;;;;;-6.98;33.10;100933.50;5026013;28;20144;-79
2022/03/10 04:00:13;;;;;;;11.47;3.80;;;;;;;-7.06;32.76;100920.88;5024084;28;20545;-79
2022/03/10 04:02:42;;;;;;;12.30;3.70;;;;;;;-7.04;32.89;100936.69;5039618;28;20143;-78
2022/03/10 04:05:09;;;;;;;10.30;3.30;;;;;;;-7.13;33.19;100919.72;4993955;28;20053;-79
2022/03/10 04:07:36;;;;;;;10.82;3.67;;;;;;;-6.87;32.83;100951.19;5016512;28;20799;-79
2022/03/10 04:10:03;;;;;;;9.93;3.63;;;;;;;-6.99;33.27;100938.00;5042447;28;20048;-79
2022/03/10 04:12:30;;;;;;;17.88;3.97;;;;;;;-7.13;33.24;100939.16;5009719;28;20418;-78
2022/03/10 04:14:56;;;;;;;13.13;3.95;;;;;;;-7.06;33.10;100939.47;5033808;28;20402;-79
2022/03/10 04:17:23;;;;;;;13.23;3.77;;;;;;;-6.95;33.33;100957.16;5025547;28;20057;-80
2022/03/10 04:19:49;;;;;;;18.93;4.40;;;;;;;-6.93;32.88;100957.91;5032204;28;20044;-79
2022/03/10 04:22:19;;;;;;;11.23;4.10;;;;;;;-7.01;33.02;100953.25;5017438;28;20049;-79
2022/03/10 04:24:46;;;;;;;12.70;4.10;;;;;;;-6.91;33.20;100955.97;5022163;28;20707;-79
2022/03/10 04:27:12;;;;;;;14.47;3.70;;;;;;;-6.88;32.92;100954.81;5029184;28;20128;-79
2022/03/10 04:29:38;;;;;;;15.50;4.75;;;;;;;-6.85;32.89;100970.56;5027495;28;20067;-80
2022/03/10 04:32:05;;;;;;;16.17;4.43;;;;;;;-7.07;33.31;100951.09;5035058;28;20553;-79
2022/03/10 04:34:31;;;;;;;12.43;4.18;;;;;;;-7.02;33.29;100971.97;5046931;28;20052;-79
2022/03/10 04:36:58;;;;;;;14.40;4.40;;;;;;;-6.95;33.11;100980.28;5033597;28;20052;-79
2022/03/10 04:39:25;;;;;;;15.33;4.13;;;;;;;-6.93;33.28;100981.00;5035818;28;20102;-80
2022/03/10 04:41:51;;;;;;;11.47;3.73;;;;;;;-7.00;33.08;100970.88;5020535;28;20399;-80
2022/03/10 04:44:17;;;;;;;12.87;3.83;;;;;;;-6.98;32.88;100984.03;5007004;28;20061;-79
2022/03/10 04:46:43;;;;;;;11.50;3.87;;;;;;;-6.93;33.07;100991.63;5018348;28;20468;-79
2022/03/10 04:49:10;;;;;;;14.80;4.17;;;;;;;-6.89;33.03;100991.25;5043954;28;20128;-78
2022/03/10 04:51:36;;;;;;;11.93;3.70;;;;;;;-6.92;33.19;100969.38;5048077;28;20041;-79
2022/03/10 04:54:03;;;;;;;12.40;3.90;;;;;;;-6.80;33.17;100984.28;5038812;28;20049;-80
2022/03/10 04:56:30;;;;;;;20.75;4.18;;;;;;;-6.75;32.65;100989.22;5044981;28;20056;-80
2022/03/10 04:58:56;;;;;;;10.35;3.60;;;;;;;-6.73;32.56;100974.78;5033739;28;20457;-79
2022/03/10 05:01:22;;;;;;;13.90;4.33;;;;;;;-6.72;32.77;100987.13;5038800;28;20049;-79
2022/03/10 05:03:50;;;;;;;16.43;4.20;;;;;;;-6.74;32.61;100980.25;5015203;28;20048;-76
2022/03/10 05:06:16;;;;;;;9.90;3.70;;;;;;;-6.75;33.13;100979.41;5046999;28;20432;-75
2022/03/10 05:08:43;;;;;;;10.83;4.03;;;;;;;-6.71;32.80;100996.81;5032598;28;20064;-75
2022/03/10 05:11:09;;;;;;;12.03;4.27;;;;;;;-6.70;32.62;100987.00;5015322;28;20049;-78
2022/03/10 05:13:36;;;;;;;10.57;4.30;;;;;;;-6.57;32.78;101006.25;5042866;28;20434;-73
2022/03/10 05:16:02;;;;;;;11.40;4.35;;;;;;;-6.52;32.65;101005.84;5040970;28;20078;-75
2022/03/10 05:18:29;;;;;;;10.47;3.83;;;;;;;-6.63;32.39;100976.66;5014142;28;20072;-74
2022/03/10 05:20:55;;;;;;;14.70;4.57;;;;;;;-6.45;32.16;100991.03;5037156;28;20482;-75
2022/03/10 05:23:21;;;;;;;21.73;4.83;;;;;;;-6.27;32.37;101012.53;5017703;28;20554;-75
2022/03/10 05:25:48;;;;;;;18.33;4.57;;;;;;;-6.30;32.48;101018.13;5011367;28;20116;-73
2022/03/10 05:28:15;;;;;;;14.38;4.65;;;;;;;-6.40;32.38;100987.97;5027262;28;20049;-74
2022/03/10 05:30:42;;;;;;;15.63;5.20;;;;;;;-6.10;32.22;101031.50;5020885;28;20060;-74
2022/03/10 05:33:09;;;;;;;12.35;4.07;;;;;;;-5.99;31.96;101020.72;5032223;28;20145;-74
2022/03/10 05:35:36;;;;;;;14.38;4.90;;;;;;;-5.85;31.62;101024.00;5037184;28;20045;-81
2022/03/10 05:38:03;;;;;;;14.53;4.17;;;;;;;-5.97;31.96;101012.59;5025689;28;20471;-81
2022/03/10 05:40:29;;;;;;;26.73;8.07;;;;;;;-5.79;31.53;101026.09;5018027;28;20046;-79
2022/03/10 05:42:56;;;;;;;50.30;16.87;;;;;;;-5.85;31.75;101000.84;5045972;28;20311;-78
2022/03/10 05:45:24;;;;;;;25.25;9.82;;;;;;;-5.61;31.58;101028.94;5021593;28;20053;-77
2022/03/10 05:47:51;;;;;;;;;;;;;;;-5.65;31.75;101037.34;5045483;28;20068;-77
2022/03/10 05:50:19;;;;;;;13.63;5.00;;;;;;;-5.66;31.59;101025.81;5033472;28;20401;-78
2022/03/10 05:52:48;;;;;;;13.65;5.18;;;;;;;-5.54;31.57;101034.56;5039222;28;20077;-77
2022/03/10 05:55:15;;;;;;;12.57;4.33;;;;;;;-5.44;31.81;101042.56;5033557;28;20148;-78
2022/03/10 05:57:42;;;;;;;19.55;4.93;;;;;;;-5.46;31.59;101039.19;5035745;28;20057;-77
2022/03/10 06:00:10;;;;;;;20.47;4.30;;;;;;;-5.35;31.36;101047.03;5039288;28;20133;-78
2022/03/10 06:02:40;;;;;;;18.07;4.57;;;;;;;-5.22;31.21;101056.59;5022793;28;20055;-73
2022/03/10 06:05:07;;;;;;;14.43;4.30;;;;;;;-5.15;31.50;101060.38;4995465;28;20074;-74
2022/03/10 06:07:34;;;;;;;15.23;4.65;;;;;;;-5.12;31.18;101054.78;5028758;28;20049;-73
2022/03/10 06:10:01;;;;;;;12.07;4.30;;;;;;;-5.07;30.96;101044.53;5031714;28;20524;-74
2022/03/10 06:12:29;;;;;;;12.67;4.20;;;;;;;-4.85;31.03;101054.03;5030137;28;20065;-74
2022/03/10 06:14:57;;;;;;;24.42;4.55;;;;;;;-4.74;30.87;101054.88;5036186;28;20402;-74
2022/03/10 06:17:23;;;;;;;16.50;4.65;;;;;;;-4.64;30.63;101057.53;5013727;28;20055;-73
2022/03/10 06:19:51;;;;;;;12.33;4.40;;;;;;;-4.50;30.89;101051.72;5029208;28;20065;-74
2022/03/10 06:22:18;;;;;;;20.17;4.78;;;;;;;-4.51;30.63;101051.88;5026355;28;20140;-75
2022/03/10 06:24:45;;;;;;;13.38;4.72;;;;;;;-4.35;30.43;101072.63;5014899;28;20099;-74
2022/03/10 06:27:11;;;;;;;20.33;6.37;;;;;;;-4.38;30.21;101065.75;5029970;28;20050;-76
2022/03/10 06:29:38;;;;;;;30.73;9.77;;;;;;;-4.32;30.48;101077.69;5035840;28;20748;-75
2022/03/10 06:32:04;;;;;;;23.08;7.18;;;;;;;-4.17;30.05;101078.88;5037663;28;20038;-76
2022/03/10 06:34:31;;;;;;;22.03;6.23;;;;;;;-4.07;29.87;101069.97;5013278;28;20056;-75
2022/03/10 06:36:59;;;;;;;21.87;5.83;;;;;;;-3.96;29.86;101082.31;5030130;28;20115;-76
2022/03/10 06:39:27;;;;;;;16.07;5.40;;;;;;;-3.89;29.73;101078.91;5013093;28;20064;-75
2022/03/10 06:41:55;;;;;;;17.63;5.50;;;;;;;-3.85;29.64;101084.78;5029832;28;20490;-73
2022/03/10 06:44:21;;;;;;;24.10;6.10;;;;;;;-3.77;29.74;101078.69;5029494;28;20068;-74
2022/03/10 06:46:47;;;;;;;16.30;4.83;;;;;;;-3.63;29.39;101075.53;5021363;28;20046;-78
2022/03/10 06:49:14;;;;;;;21.93;4.60;;;;;;;-3.63;29.38;101082.72;5021372;28;20128;-78
2022/03/10 06:51:40;;;;;;;15.07;5.00;;;;;;;-3.60;29.55;101077.06;5028416;28;20513;-78
2022/03/10 06:54:06;;;;;;;13.80;4.70;;;;;;;-3.55;29.15;101077.44;5011636;28;20132;-78
2022/03/10 06:56:34;;;;;;;12.23;3.53;;;;;;;-3.45;29.44;101077.38;5012329;28;20128;-78
2022/03/10 06:59:00;;;;;;;18.65;4.38;;;;;;;-3.49;29.42;101059.97;5019936;28;20144;-79
2022/03/10 07:01:30;;;;;;;13.03;3.83;;;;;;;-3.46;29.08;101054.28;5025890;28;20061;-78
2022/03/10 07:03:59;;;;;;;26.65;10.25;;;;;;;-3.21;29.35;101075.97;5030206;28;20517;-78
2022/03/10 07:06:26;;;;;;;27.03;9.83;;;;;;;-3.14;29.04;101088.56;5029138;28;20139;-78
2022/03/10 07:08:54;;;;;;;18.10;5.90;;;;;;;-2.90;28.90;101083.59;5050538;28;20057;-79
2022/03/10 07:11:20;;;;;;;20.33;4.70;;;;;;;-2.79;28.66;101080.69;5050340;28;20462;-77
2022/03/10 07:13:47;;;;;;;19.63;4.40;;;;;;;-2.74;28.37;101078.38;5043833;28;20521;-78
2022/03/10 07:16:14;;;;;;;16.77;4.47;;;;;;;-2.70;28.15;101094.97;5030385;28;20132;-78
2022/03/10 07:18:40;;;;;;;10.03;3.23;;;;;;;-2.64;28.32;101088.97;5029799;28;20170;-78
2022/03/10 07:21:09;;;;;;;13.47;3.47;;;;;;;-2.57;28.31;101078.47;5009972;28;20621;-78
2022/03/10 07:23:38;;;;;;;13.67;3.60;;;;;;;-2.49;28.12;101089.28;5030127;28;20045;-78
2022/03/10 07:26:10;;;;;;;24.53;3.17;;;;;;;-2.42;28.05;101076.06;5023541;28;20127;-79
2022/03/10 07:28:37;;;;;;;10.37;3.53;;;;;;;-2.35;27.73;101089.66;4994681;28;20054;-78
2022/03/10 07:31:04;;;;;;;12.40;3.08;;;;;;;-2.25;27.61;101097.63;5005957;28;20046;-79
2022/03/10 07:33:30;;;;;;;16.83;3.17;;;;;;;-2.15;27.65;101087.59;5006785;28;20133;-79
2022/03/10 07:35:57;;;;;;;13.70;3.13;;;;;;;-2.14;27.49;101087.47;4995805;28;20057;-72
2022/03/10 07:38:23;;;;;;;13.37;3.80;;;;;;;-2.07;27.80;101086.81;5029685;28;20096;-73
2022/03/10 07:40:56;;;;;;;7.87;2.77;;;;;;;-1.98;27.43;101088.53;5031355;28;20041;-81
2022/03/10 07:43:23;;;;;;;9.70;3.10;;;;;;;-2.01;27.37;101062.06;5013950;28;20045;-75
2022/03/10 07:45:50;;;;;;;12.90;2.93;;;;;;;-1.81;27.28;101070.66;5031868;28;20045;-82
2022/03/10 07:48:21;;;;;;;;;;;;;;;-1.68;26.98;101090.81;5030679;28;20045;-84
2022/03/10 07:50:47;;;;;;;9.57;3.30;;;;;;;-1.77;26.91;101066.69;5016270;28;19925;-83
2022/03/10 07:53:13;;;;;;;22.63;3.77;;;;;;;-1.65;26.69;101077.94;5032409;28;20124;-81
2022/03/10 07:55:41;;;;;;;18.83;3.23;;;;;;;-1.58;27.12;101086.19;5033638;28;20061;-81
2022/03/10 07:58:11;;;;;;;14.10;3.47;;;;;;;-1.52;26.91;101076.66;5032005;28;20304;-83
2022/03/10 08:00:38;;;;;;;17.27;3.50;;;;;;;-1.47;26.93;101085.03;5011578;28;20156;-82
2022/03/10 08:03:06;;;;;;;14.63;3.05;;;;;;;-1.39;27.11;101068.97;5031727;28;20403;-82
2022/03/10 08:05:34;;;;;;;14.20;3.57;;;;;;;-1.34;26.98;101060.41;5031581;28;20045;-79
2022/03/10 08:08:03;;;;;;;15.57;3.50;;;;;;;-1.37;26.88;101048.16;5008566;28;20049;-82
2022/03/10 08:10:32;;;;;;;15.90;5.77;;;;;;;-1.13;26.76;101065.28;5012161;28;20044;-82
2022/03/10 08:12:58;;;;;;;28.87;11.30;;;;;;;-0.93;26.76;101078.41;5001091;28;20146;-81
2022/03/10 08:15:26;;;;;;;20.17;5.77;;;;;;;-0.87;26.16;101069.69;5023178;28;20578;-80
2022/03/10 08:17:52;;;;;;;;;;;;;;;-0.77;26.15;101074.88;5023756;28;20041;-81
2022/03/10 08:20:18;;;;;;;11.53;2.90;;;;;;;-0.64;26.07;101067.16;5015065;28;19952;-80
2022/03/10 08:22:45;;;;;;;9.50;2.73;;;;;;;-0.57;25.76;101067.31;5027529;28;20073;-82
2022/03/10 08:25:12;;;;;;;9.35;2.70;;;;;;;-0.48;26.08;101077.00;5020224;28;20100;-79
2022/03/10 08:27:38;;;;;;;9.88;2.20;;;;;;;-0.53;25.84;101054.38;5007475;28;20054;-79
2022/03/10 08:30:06;;;;;;;9.13;2.73;;;;;;;-0.39;25.62;101068.94;5007915;28;20061;-79
2022/03/10 08:32:32;;;;;;;7.20;2.70;;;;;;;-0.25;25.77;101070.09;5018849;28;20037;-80
2022/03/10 08:35:01;;;;;;;11.13;3.20;;;;;;;-0.08;25.47;101071.75;5026426;28;20567;-80
2022/03/10 08:37:30;;;;;;;10.00;2.93;;;;;;;-0.02;25.51;101078.25;5026608;28;20482;-81
2022/03/10 08:39:57;;;;;;;15.33;3.40;;;;;;;0.17;25.30;101081.56;5001412;28;20049;-78
2022/03/10 08:42:23;;;;;;;8.43;2.53;;;;;;;0.25;25.29;101081.53;5017309;28;20045;-78
2022/03/10 08:44:50;;;;;;;11.07;2.90;;;;;;;0.42;25.16;101075.03;5024166;28;20140;-73
2022/03/10 08:47:16;;;;;;;8.83;3.40;;;;;;;0.43;25.08;101038.22;5031174;28;20488;-73
2022/03/10 08:49:42;;;;;;;11.37;3.10;;;;;;;0.71;24.88;101064.63;5024865;28;20057;-74
2022/03/10 08:52:09;;;;;;;7.57;2.57;;;;;;;0.80;24.92;101062.72;5023567;28;20053;-74
2022/03/10 08:54:35;;;;;;;15.07;3.00;;;;;;;0.97;24.42;101066.97;5006115;28;20490;-74
2022/03/10 08:57:02;;;;;;;9.83;2.97;;;;;;;1.10;24.33;101070.91;5020551;28;20058;-74
2022/03/10 08:59:28;;;;;;;12.10;2.75;;;;;;;1.25;24.20;101060.16;5021130;28;20510;-74
2022/03/10 09:01:55;;;;;;;11.03;2.67;;;;;;;1.36;24.17;101065.13;5007628;28;20115;-75
2022/03/10 09:04:21;;;;;;;9.63;2.90;;;;;;;1.50;24.26;101066.16;5008484;28;20049;-75
2022/03/10 09:06:47;;;;;;;8.00;2.60;;;;;;;1.48;23.97;101030.47;5021662;28;20058;-74
2022/03/10 09:09:14;;;;;;;12.00;2.73;;;;;;;1.78;23.83;101059.28;5019289;28;20049;-76
2022/03/10 09:11:40;;;;;;;11.55;3.00;;;;;;;1.93;23.61;101045.81;5026974;28;20491;-75
2022/03/10 09:14:07;;;;;;;11.80;2.90;;;;;;;2.04;23.72;101045.34;5030323;28;20524;-74
2022/03/10 09:16:33;;;;;;;14.53;3.27;;;;;;;2.11;23.41;101056.25;5029525;28;20068;-75
2022/03/10 09:19:00;;;;;;;14.00;3.05;;;;;;;2.24;23.39;101052.88;5037520;28;20398;-74
2022/03/10 09:21:26;;;;;;;12.07;2.90;;;;;;;2.41;23.21;101057.00;5008873;28;20056;-74
2022/03/10 09:23:53;;;;;;;16.00;3.53;;;;;;;2.45;23.00;101041.28;5032358;28;20395;-75
2022/03/10 09:26:19;;;;;;;6.40;2.38;;;;;;;2.67;22.91;101052.09;5037541;28;20079;-75
2022/03/10 09:28:45;;;;;;;7.55;2.38;;;;;;;2.89;22.90;101041.28;5034771;28;20279;-74
2022/03/10 09:31:19;;;;;;;7.00;2.43;;;;;;;3.06;22.67;101041.88;5015205;28;20048;-79
2022/03/10 09:33:46;;;;;;;8.55;2.55;;;;;;;3.25;22.37;101053.88;5029744;28;20050;-80
2022/03/10 09:36:15;;;;;;;7.50;2.38;;;;;;;3.38;22.34;101050.44;5012137;28;20539;-81
2022/03/10 09:38:42;;;;;;;8.98;2.50;;;;;;;3.46;22.14;101042.19;5020755;28;20509;-78
2022/03/10 09:41:09;;;;;;;9.02;2.63;;;;;;;3.63;22.40;101041.91;5030807;28;20053;-78
2022/03/10 09:43:37;;;;;;;13.18;2.65;;;;;;;3.84;21.87;101051.81;4998963;28;20067;-78
2022/03/10 09:46:10;;;;;;;17.13;2.83;;;;;;;3.89;21.75;101030.38;5031443;28;20041;-74
2022/03/10 09:48:38;;;;;;;8.70;2.83;;;;;;;4.06;21.58;101047.13;5030403;28;20041;-72
2022/03/10 09:51:04;;;;;;;;;;;;;;;4.08;21.25;101050.47;5030720;28;20312;-72
2022/03/10 09:53:31;;;;;;;12.05;3.38;;;;;;;4.10;21.24;101021.31;5030318;28;19925;-73
2022/03/10 09:55:57;;;;;;;18.05;4.40;;;;;;;4.47;21.49;101056.25;5010456;28;20053;-72
2022/03/10 09:58:24;;;;;;;13.77;4.10;;;;;;;4.56;21.18;101037.94;5022185;28;20045;-73
2022/03/10 10:00:57;;;;;;;14.82;3.72;;;;;;;4.81;21.20;101057.16;5011850;28;20051;-72
2022/03/10 10:03:23;;;;;;;17.20;3.67;;;;;;;5.03;20.94;101040.72;5011048;28;20068;-73
2022/03/10 10:05:50;;;;;;;9.60;3.20;;;;;;;5.11;20.57;101047.81;5021167;28;20049;-70
2022/03/10 10:08:17;;;;;;;13.60;3.00;;;;;;;5.29;20.41;101046.34;5027927;28;20132;-73
2022/03/10 10:10:45;;;;;;;8.95;2.80;;;;;;;5.44;20.55;101044.25;5030846;28;20073;-75
2022/03/10 10:13:24;;;;;;;7.38;2.45;;;;;;;5.61;20.32;101036.53;5039701;28;20049;-72
2022/03/10 10:15:55;;;;;;;8.15;2.58;;;;;;;5.73;20.07;101046.72;5029929;28;20053;-72
2022/03/10 10:18:22;;;;;;;8.80;2.67;;;;;;;5.93;19.91;101033.94;5025369;28;20132;-72
2022/03/10 10:20:51;;;;;;;7.20;2.60;;;;;;;5.96;19.68;101033.50;5029826;28;20050;-73
2022/03/10 10:23:20;;;;;;;11.13;2.72;;;;;;;6.24;19.63;101039.69;5028258;28;20076;-72
2022/03/10 10:25:51;;;;;;;8.88;2.42;;;;;;;6.42;19.62;101032.75;4999481;28;20406;-72
2022/03/10 10:28:27;;;;;;;7.57;2.33;;;;;;;6.51;19.33;101045.84;5029697;28;20541;-72
2022/03/10 10:31:00;;;;;;;9.40;2.92;;;;;;;6.46;19.14;101017.66;5028305;28;20047;-72
2022/03/10 10:33:28;;;;;;;6.72;2.65;;;;;;;6.77;19.23;101038.56;5028379;28;20049;-72
2022/03/10 10:36:17;;;;;;;7.45;2.60;;;;;;;6.76;18.96;101008.91;5023334;28;20522;-70
2022/03/10 10:38:45;;;;;;;12.43;2.60;;;;;;;7.07;19.24;101027.06;5019786;28;20053;-76
2022/03/10 10:41:25;;;;;;;10.55;3.08;;;;;;;7.09;18.95;101024.97;5029033;28;20059;-76
2022/03/10 10:43:54;;;;;;;17.75;6.88;;;;;;;7.12;18.77;101026.41;5026655;28;20045;-76
2022/03/10 10:46:28;;;;;;;15.55;6.35;;;;;;;7.28;18.58;101022.31;5016721;28;20056;-76
2022/03/10 10:48:59;;;;;;;11.05;3.47;;;;;;;7.43;18.51;101024.69;5028970;28;20041;-75
2022/03/10 10:51:31;;;;;;;11.90;3.17;;;;;;;7.67;18.38;101022.16;5029472;28;20426;-74
2022/03/10 10:53:58;;;;;;;13.68;3.15;;;;;;;7.72;18.38;101016.00;5016881;28;20071;-76
2022/03/10 10:56:28;;;;;;;9.35;2.95;;;;;;;7.80;18.46;101021.16;5019285;28;20057;-74
2022/03/10 10:58:55;;;;;;;10.75;3.00;;;;;;;7.74;18.40;100984.78;5011730;28;20610;-75
2022/03/10 11:01:34;;;;;;;8.93;2.85;;;;;;;7.75;18.13;100991.91;5022536;28;20195;-74
2022/03/10 11:04:01;;;;;;;10.18;2.75;;;;;;;7.94;17.73;101016.41;5024133;28;20115;-76
2022/03/10 11:06:28;;;;;;;14.13;2.90;;;;;;;8.06;17.92;101017.31;5028205;28;20049;-75
2022/03/10 11:09:04;;;;;;;9.77;2.80;;;;;;;8.25;17.96;101017.28;5010765;28;20068;-76
2022/03/10 11:11:31;;;;;;;10.00;2.65;;;;;;;8.24;17.57;100999.28;5011266;28;20050;-75
2022/03/10 11:13:57;;;;;;;6.80;2.33;;;;;;;8.31;17.75;101013.66;5022678;28;20049;-76
2022/03/10 11:16:24;;;;;;;8.57;2.80;;;;;;;8.29;17.63;101013.06;5028441;28;20053;-75
2022/03/10 11:18:53;;;;;;;14.18;2.80;;;;;;;8.29;17.51;101014.94;5029766;28;20493;-75
2022/03/10 11:21:52;;;;;;;9.90;2.80;;;;;;;8.48;17.37;101013.81;5029129;28;20514;-75
2022/03/10 11:24:39;;;;;;;10.30;3.63;;;;;;;8.50;17.56;100991.84;5029935;28;20160;-74
2022/03/10 11:27:12;;;;;;;17.02;6.32;;;;;;;9.09;17.30;101015.69;5020033;28;20482;-79
2022/03/10 11:29:46;;;;;;;11.23;4.00;;;;;;;9.00;17.25;101012.47;5030059;28;20504;-78